Axel, Colorado
Current Conditions -  °F | °C
As of 2:53 PM on Friday 28 Nov 2014 (Local Time) from KEEO Reporting Station
Clear Clear  
Wind Chill: 54°   Ceiling: Unl
Heat Index: 54°   Visibility: 10mi
Dew Point: 18°   Wind: 7mph
Humidity: 24%   Direction: 210°SSW
Pressure: 30.02"   Gusts: NA
Location:  40.0347°N, 107.628°W
Report Text: KEEO 282153Z AUTO 21006KT 10SM CLR 12/M08 A3002 RMK AO2 SLP139 T01221078
Loading
Personal Weather Stations






























Interactive Weather Map New forecast layout! Learn more

10-Day Weather Forecast

Advertisements
Track Severe Weather on mobile